Air Navigation Services of Czech Republic  
Last data update:  09.12.2018 19:01:08 UTC Česká verze
   METEO Page displayed:  09.12.2018 19:01:30 UTC  
help
METAR EDDB 091850Z 27019KT 9999 FEW015 SCT023 07/04 Q0996 TEMPO 26015G25KT=
METAR EDDC 091850Z 27013KT 220V310 9999 BKN021 BKN040 06/03 Q1000 TEMPO 27015G25KT=
METAR EDDE 091850Z 26017KT 9999 FEW020 BKN033 04/03 Q1003 TEMPO 26015G25KT=
METAR EDDF 091850Z 25011KT 9999 FEW011 SCT022 BKN035 08/04 Q1009 NOSIG=
METAR EDDM 091850Z 26018KT 9999 FEW013 BKN016 OVC025 06/04 Q1007 NOSIG=
METAR EDDN 091850Z 29014KT 9999 FEW012 BKN016 06/04 Q1007 NOSIG=
METAR EDDP 091850Z 26017KT 9999 FEW030 BKN040 06/04 Q1001 TEMPO 26015G25KT=
METAR EDDT 091850Z 27015KT 9999 FEW020 BKN032 07/04 Q0996 TEMPO 27015G25KT=
METAR EDQM 091750Z 27011KT 9999 BKN014 OVC018 03/02 Q1002=
METAR EPBY 091830Z 24011KT 9999 -RA FEW008 SCT010 BKN012 06/05 Q0992 =
METAR EPGD 091830Z 25008KT 9999 -SHRA FEW005 SCT013 BKN019 05/04 Q0989 =
METAR EPKK 091830Z 23003KT 9999 -SHRA SCT020CB BKN030 04/04 Q0998 =
METAR EPKT 091830Z 22012KT 9999 -RA FEW009 OVC036 06/04 Q0997 =
METAR EPLL 091830Z 23007KT 9999 FEW012 BKN037 06/04 Q0995 =
METAR EPPO 091830Z 24010KT 9999 -SHRA BKN011 BKN036CB 06/05 Q0994 R10/290095 =
METAR EPRZ 091830Z 20012KT 9999 SCT022CB BKN033 04/01 Q0998 =
METAR EPWA 091830Z 23005KT 200V260 9999 -SHRA FEW012 SCT035CB 06/05 Q0994 NOSIG=
METAR EPWR 091830Z 28013KT 9999 -RA FEW024 SCT030 BKN043 06/03 Q0997 =
METAR LHBP 091830Z 18005KT CAVOK M00/M00 Q1004 NOSIG=
METAR LHSM NIL
METAR LKBC 091900Z AUTO 26008KT 9999 OVC024 06/02 Q1001=
METAR LKCV 091900Z 28009KT 9999 -RA FEW017 OVC031 06/05 Q1001 RMK BLACK=
METAR LKKB 091900Z 26012KT 9999 BKN031 06/03 Q1001 NOSIG RMK BLU BLU=
METAR LKKU NIL
METAR LKKV 091900Z 26013G23KT 9999 BKN017 03/01 Q1002 RMK REG QNH 0996=
METAR LKLN 091900Z AUTO 27006KT 200V300 9999 SCT020 OVC025 06/04 Q1003=
METAR LKMT 091900Z 23013KT CAVOK 06/03 Q0999 NOSIG RMK REG QNH 0996=
METAR LKNA 091900Z 26011KT CAVOK 04/01 Q1000 NOSIG RMK BLU BLU=
METAR LKPD 091900Z 27012KT 9999 -RA SCT023 OVC030 05/04 Q1000 NOSIG RMK BLU BLU=
METAR LKPR 091900Z 27013KT 9999 BKN024 OVC042 05/02 Q1001 NOSIG RMK REG QNH 0996=
METAR LKTB 091900Z 23010KT CAVOK 05/02 Q1001 NOSIG RMK REG QNH 0996=
METAR LKVO NIL
METAR LOWI 091850Z VRB01KT 9999 -RA FEW012 SCT019 OVC030 04/02 Q1009 TEMPO -SHRA=
METAR LOWL 091850Z AUTO 26022KT 9999 FEW022 SCT034 BKN038 07/03 Q1005 NOSIG=
METAR LOWS 091850Z 28015G28KT 240V310 9999 -SHRA FEW020 SCT035 BKN060 08/02 Q1007 TEMPO SHRA=
METAR LOWW 091850Z 22005KT 130V280 9999 FEW032 BKN100 08/02 Q1004 WS R34 TEMPO 28018G28KT=
METAR LZIB 091900Z 26010KT CAVOK 08/02 Q1004 NOSIG=
METAR LZKZ 091900Z 17004KT 9999 OVC009 02/01 Q1002=
METAR LZMC 091800Z 23010KT CAVOK 06/03 Q1003=
METAR LZPP 091830Z 21006KT 160V240 9999 SCT045 BKN070 07/03 Q1002=
METAR LZSL 091830Z 00000KT 3200 -RA BR BKN029 OVC036 01/00 Q1002=
METAR LZTT 091900Z 12003KT 9999 -RA FEW008 BKN013 OVC030 00/M01 Q0999=
METAR LZZI 091830Z VRB02KT 4500 -RA BR SCT024 OVC030 04/03 Q1001=